createdAt,value
2023-01-27T00:01:48.598Z,1.10
2023-01-27T00:04:19.400Z,1.00
2023-01-27T00:06:48.613Z,1.00
2023-01-27T00:09:17.443Z,1.00
2023-01-27T00:12:04.495Z,0.90
2023-01-27T00:14:33.396Z,0.90
2023-01-27T00:17:02.069Z,0.90
2023-01-27T00:19:32.196Z,0.90
2023-01-27T00:22:18.138Z,1.00
2023-01-27T00:24:47.120Z,0.90
2023-01-27T00:27:16.793Z,0.90
2023-01-27T00:29:45.293Z,0.90
2023-01-27T00:32:32.208Z,0.80
2023-01-27T00:35:02.680Z,0.80
2023-01-27T00:37:32.811Z,0.80
2023-01-27T00:40:05.712Z,0.80
2023-01-27T00:42:35.492Z,0.70
2023-01-27T00:45:22.090Z,0.70
2023-01-27T00:47:50.996Z,0.70
2023-01-27T00:50:21.620Z,0.70
2023-01-27T00:52:51.055Z,0.70
2023-01-27T00:55:20.984Z,0.70
2023-01-27T00:57:52.855Z,0.70
2023-01-27T01:00:22.640Z,0.70
2023-01-27T01:02:53.604Z,0.70
2023-01-27T01:05:25.017Z,0.70
2023-01-27T01:07:54.551Z,0.70
2023-01-27T01:10:24.451Z,0.70
2023-01-27T01:12:53.658Z,0.70
2023-01-27T01:15:22.221Z,0.70
2023-01-27T01:17:51.841Z,0.70
2023-01-27T01:20:20.592Z,0.70
2023-01-27T01:22:50.511Z,0.70
2023-01-27T01:25:19.121Z,0.80
2023-01-27T01:27:47.879Z,0.80
2023-01-27T01:30:16.789Z,0.70
2023-01-27T01:32:45.360Z,0.70
2023-01-27T01:35:14.111Z,0.70
2023-01-27T01:37:42.869Z,0.70
2023-01-27T01:40:14.371Z,0.70
2023-01-27T01:42:59.740Z,0.80
2023-01-27T01:45:46.371Z,0.70
2023-01-27T01:48:19.886Z,0.70
2023-01-27T01:50:52.750Z,0.70
2023-01-27T01:53:22.991Z,0.70
2023-01-27T01:55:53.252Z,0.70
2023-01-27T01:58:22.251Z,0.80
2023-01-27T02:00:50.889Z,0.80
2023-01-27T02:03:19.767Z,0.70
2023-01-27T02:05:48.936Z,0.70
2023-01-27T02:08:22.700Z,0.80
2023-01-27T02:10:54.622Z,0.80
2023-01-27T02:13:23.515Z,0.80
2023-01-27T02:15:54.599Z,0.80
2023-01-27T02:18:23.643Z,0.80
2023-01-27T02:20:54.370Z,0.80
2023-01-27T02:23:32.834Z,0.80
2023-01-27T02:26:07.433Z,0.80
2023-01-27T02:28:36.272Z,0.80
2023-01-27T02:31:04.979Z,0.80
2023-01-27T02:33:35.607Z,0.90
2023-01-27T02:36:08.199Z,0.90
2023-01-27T02:38:44.920Z,0.90
2023-01-27T02:41:19.676Z,0.90
2023-01-27T02:43:49.910Z,0.90
2023-01-27T02:46:19.782Z,0.90
2023-01-27T02:48:49.596Z,0.90
2023-01-27T02:51:19.015Z,0.90
2023-01-27T02:53:48.904Z,0.90
2023-01-27T02:56:19.026Z,0.90
2023-01-27T02:58:47.853Z,0.90
2023-01-27T03:01:20.084Z,0.80
2023-01-27T03:03:48.721Z,0.90
2023-01-27T03:06:20.851Z,0.90
2023-01-27T03:08:49.909Z,0.90
2023-01-27T03:11:40.001Z,0.80
2023-01-27T03:14:09.279Z,0.80
2023-01-27T03:16:55.303Z,0.80
2023-01-27T03:19:24.016Z,0.80
2023-01-27T03:21:53.917Z,0.80
2023-01-27T03:24:23.445Z,0.80
2023-01-27T03:26:55.710Z,0.80
2023-01-27T03:29:51.334Z,0.80
2023-01-27T03:32:19.976Z,0.90
2023-01-27T03:35:02.992Z,0.90
2023-01-27T03:37:53.791Z,0.90
2023-01-27T03:40:40.976Z,0.90
2023-01-27T03:43:28.987Z,0.90
2023-01-27T03:46:15.185Z,0.90
2023-01-27T03:48:43.997Z,0.90
2023-01-27T03:51:12.926Z,0.90
2023-01-27T03:53:41.466Z,0.90
2023-01-27T03:56:10.111Z,0.90
2023-01-27T03:58:40.622Z,0.90
2023-01-27T04:01:14.081Z,1.00
2023-01-27T04:04:00.653Z,0.90
2023-01-27T04:06:48.618Z,0.90
2023-01-27T04:09:21.853Z,1.00
2023-01-27T04:11:55.374Z,1.00
2023-01-27T04:14:27.186Z,1.00
2023-01-27T04:16:59.201Z,1.00
2023-01-27T04:19:28.086Z,1.00
2023-01-27T04:21:57.747Z,0.90
2023-01-27T04:24:26.640Z,1.00
2023-01-27T04:26:57.469Z,1.00
2023-01-27T04:29:29.425Z,1.00
2023-01-27T04:31:58.921Z,1.10
2023-01-27T04:34:28.399Z,1.00
2023-01-27T04:36:57.609Z,1.00
2023-01-27T04:39:27.357Z,1.10
2023-01-27T04:41:56.796Z,1.10
2023-01-27T04:44:27.081Z,1.00
2023-01-27T04:46:55.973Z,1.10
2023-01-27T04:49:26.987Z,1.10
2023-01-27T04:51:55.817Z,1.10
2023-01-27T04:54:24.511Z,1.10
2023-01-27T04:56:58.565Z,1.10
2023-01-27T04:59:32.277Z,1.10
2023-01-27T05:02:00.942Z,1.10
2023-01-27T05:04:29.558Z,1.10
2023-01-27T05:06:58.095Z,1.10
2023-01-27T05:09:26.866Z,1.10
2023-01-27T05:11:55.437Z,1.00
2023-01-27T05:14:24.678Z,1.10
2023-01-27T05:16:54.777Z,1.10
2023-01-27T05:19:23.380Z,1.10
2023-01-27T05:21:52.038Z,1.10
2023-01-27T05:24:20.805Z,1.10
2023-01-27T05:26:49.645Z,1.10
2023-01-27T05:29:18.367Z,1.10
2023-01-27T05:31:47.408Z,1.10
2023-01-27T05:34:18.086Z,1.10
2023-01-27T05:36:46.852Z,1.10
2023-01-27T05:39:15.603Z,1.10
2023-01-27T05:41:44.709Z,1.10
2023-01-27T05:44:13.997Z,1.10
2023-01-27T05:46:43.736Z,1.10
2023-01-27T05:49:12.551Z,1.20
2023-01-27T05:51:42.781Z,1.20
2023-01-27T05:54:12.220Z,1.20
2023-01-27T05:56:41.655Z,1.20
2023-01-27T05:59:12.708Z,1.20
2023-01-27T06:01:41.749Z,1.20
2023-01-27T06:04:12.073Z,1.20
2023-01-27T06:06:42.225Z,1.20
2023-01-27T06:09:11.860Z,1.20
2023-01-27T06:11:40.521Z,1.20
2023-01-27T06:14:09.198Z,1.20
2023-01-27T06:16:38.037Z,1.20
2023-01-27T06:19:06.804Z,1.10
2023-01-27T06:21:35.319Z,1.10
2023-01-27T06:24:05.728Z,1.20
2023-01-27T06:26:35.555Z,1.20
2023-01-27T06:29:05.454Z,1.10
2023-01-27T06:31:36.265Z,1.20
2023-01-27T06:34:05.208Z,1.10
2023-01-27T06:36:33.742Z,1.20
2023-01-27T06:39:04.956Z,1.20
2023-01-27T06:41:33.627Z,1.20
2023-01-27T06:44:02.200Z,1.10
2023-01-27T06:46:30.876Z,1.10
2023-01-27T06:48:59.734Z,1.20
2023-01-27T06:51:28.339Z,1.10
2023-01-27T06:53:56.858Z,1.10
2023-01-27T06:56:27.010Z,1.10
2023-01-27T06:58:55.826Z,1.10
2023-01-27T07:01:24.425Z,1.10
2023-01-27T07:03:52.972Z,1.20
2023-01-27T07:06:21.639Z,1.10
2023-01-27T07:08:51.695Z,1.10
2023-01-27T07:11:20.978Z,1.10
2023-01-27T07:13:51.970Z,1.10
2023-01-27T07:16:20.640Z,1.10
2023-01-27T07:18:50.142Z,1.10
2023-01-27T07:21:19.150Z,1.10
2023-01-27T07:23:48.384Z,1.10
2023-01-27T07:26:24.972Z,1.10
2023-01-27T07:28:57.012Z,1.10
2023-01-27T07:31:25.870Z,1.10
2023-01-27T07:33:55.102Z,1.10
2023-01-27T07:36:23.806Z,1.10
2023-01-27T07:38:52.740Z,1.10
2023-01-27T07:41:23.111Z,1.10
2023-01-27T07:43:52.549Z,1.10
2023-01-27T07:46:22.817Z,1.10
2023-01-27T07:48:51.675Z,1.20
2023-01-27T07:51:20.412Z,1.10
2023-01-27T07:53:49.000Z,1.10
2023-01-27T07:56:17.628Z,1.10
2023-01-27T07:58:46.272Z,1.10
2023-01-27T08:01:15.198Z,1.10
2023-01-27T08:03:45.544Z,1.10
2023-01-27T08:06:14.677Z,1.20
2023-01-27T08:08:43.704Z,1.20
2023-01-27T08:11:15.609Z,1.20
2023-01-27T08:13:44.681Z,1.20
2023-01-27T08:16:15.029Z,1.20
2023-01-27T08:18:45.331Z,1.10
2023-01-27T08:21:14.774Z,1.20
2023-01-27T08:23:43.410Z,1.20
2023-01-27T08:26:12.128Z,1.20
2023-01-27T08:28:41.981Z,1.20
2023-01-27T08:31:14.376Z,1.20
2023-01-27T08:33:45.671Z,1.10
2023-01-27T08:36:16.561Z,1.10
2023-01-27T08:38:46.633Z,1.10
2023-01-27T08:41:17.320Z,1.10
2023-01-27T08:43:46.250Z,1.20
2023-01-27T08:46:15.681Z,1.20
2023-01-27T08:48:46.266Z,1.20
2023-01-27T08:51:15.933Z,1.20
2023-01-27T08:53:44.463Z,1.30
2023-01-27T08:56:17.632Z,1.20
2023-01-27T08:58:48.667Z,1.20
2023-01-27T09:01:17.911Z,1.30
2023-01-27T09:03:47.887Z,1.30
2023-01-27T09:06:17.572Z,1.30
2023-01-27T09:09:06.324Z,1.30
2023-01-27T09:11:35.931Z,1.30
2023-01-27T09:14:04.600Z,1.30
2023-01-27T09:16:33.325Z,1.30
2023-01-27T09:19:04.205Z,1.30
2023-01-27T09:21:36.824Z,1.30
2023-01-27T09:24:05.823Z,1.30
2023-01-27T09:26:34.591Z,1.30
2023-01-27T09:29:03.471Z,1.30
2023-01-27T09:31:32.342Z,1.30
2023-01-27T09:34:02.534Z,1.30
2023-01-27T09:36:31.982Z,1.30
2023-01-27T09:39:04.485Z,1.30
2023-01-27T09:42:02.106Z,1.30
2023-01-27T09:45:21.931Z,1.30
2023-01-27T09:48:07.664Z,1.20
2023-01-27T09:50:49.911Z,1.20
2023-01-27T09:54:01.357Z,1.20
2023-01-27T09:56:40.730Z,1.20
2023-01-27T09:59:23.987Z,1.30
2023-01-27T10:02:00.537Z,1.30
2023-01-27T10:04:52.375Z,1.30
2023-01-27T10:07:45.231Z,1.30
2023-01-27T10:10:43.495Z,1.30
2023-01-27T10:13:20.897Z,1.20
2023-01-27T10:15:59.580Z,1.20
2023-01-27T10:18:46.903Z,1.20
2023-01-27T10:21:24.267Z,1.20
2023-01-27T10:24:04.946Z,1.30
2023-01-27T10:26:41.161Z,1.30
2023-01-27T10:29:13.231Z,1.20
2023-01-27T10:31:49.821Z,1.20
2023-01-27T10:34:28.301Z,1.20
2023-01-27T10:37:12.594Z,1.20
2023-01-27T10:39:50.700Z,1.30
2023-01-27T10:42:29.241Z,1.20
2023-01-27T10:45:11.997Z,1.20
2023-01-27T10:48:05.826Z,1.20
2023-01-27T10:50:40.850Z,1.20
2023-01-27T10:53:13.490Z,1.20
2023-01-27T10:55:51.314Z,1.20
2023-01-27T10:58:33.024Z,1.20
2023-01-27T11:01:24.361Z,1.20
2023-01-27T11:03:59.049Z,1.30
2023-01-27T11:06:33.684Z,1.20
2023-01-27T11:09:08.960Z,1.20
2023-01-27T11:11:45.893Z,1.30
2023-01-27T11:14:22.661Z,1.30
2023-01-27T11:16:53.993Z,1.30
2023-01-27T11:19:36.560Z,1.30
2023-01-27T11:22:15.651Z,1.30
2023-01-27T11:24:49.145Z,1.30
2023-01-27T11:27:28.327Z,1.30
2023-01-27T11:30:02.697Z,1.30
2023-01-27T11:32:40.173Z,1.30
2023-01-27T11:35:12.619Z,1.30
2023-01-27T11:37:43.021Z,1.30
2023-01-27T11:40:18.532Z,1.20
2023-01-27T11:42:50.470Z,1.20
2023-01-27T11:45:21.911Z,1.20
2023-01-27T11:47:56.487Z,1.20
2023-01-27T11:50:26.436Z,1.10
2023-01-27T11:53:05.084Z,1.20
2023-01-27T11:55:39.839Z,1.10
2023-01-27T11:58:17.186Z,1.10
2023-01-27T12:00:49.292Z,1.10
2023-01-27T12:03:24.638Z,1.10
2023-01-27T12:05:56.880Z,1.10
2023-01-27T12:08:40.035Z,1.20
2023-01-27T12:11:24.676Z,1.20
2023-01-27T12:13:56.794Z,1.20
2023-01-27T12:16:40.035Z,1.10
2023-01-27T12:19:22.514Z,1.20
2023-01-27T12:21:54.605Z,1.10
2023-01-27T12:24:29.630Z,1.10
2023-01-27T12:27:00.741Z,1.10
2023-01-27T12:29:40.117Z,1.10
2023-01-27T12:32:17.256Z,1.00
2023-01-27T12:34:50.546Z,1.00
2023-01-27T12:37:25.743Z,1.00
2023-01-27T12:40:02.515Z,1.00
2023-01-27T12:42:44.474Z,1.00
2023-01-27T12:45:30.043Z,1.00
2023-01-27T12:48:04.080Z,1.00
2023-01-27T12:50:35.217Z,1.00
2023-01-27T12:53:14.072Z,1.00
2023-01-27T12:55:45.610Z,1.00
2023-01-27T12:58:32.713Z,0.90
2023-01-27T13:01:06.432Z,0.90
2023-01-27T13:03:42.212Z,0.90
2023-01-27T13:06:16.459Z,0.90
2023-01-27T13:08:45.924Z,0.90
2023-01-27T13:11:14.873Z,1.00
2023-01-27T13:13:51.721Z,0.90
2023-01-27T13:16:29.121Z,0.90
2023-01-27T13:19:19.508Z,1.00
2023-01-27T13:21:51.872Z,1.00
2023-01-27T13:24:28.396Z,1.00
2023-01-27T13:26:57.910Z,1.00
2023-01-27T13:29:32.264Z,1.00
2023-01-27T13:32:08.130Z,1.00
2023-01-27T13:34:42.031Z,0.90
2023-01-27T13:37:17.576Z,0.90
2023-01-27T13:39:56.463Z,0.90
2023-01-27T13:42:29.297Z,0.90
2023-01-27T13:45:02.577Z,0.90
2023-01-27T13:47:40.559Z,0.80
2023-01-27T13:50:20.263Z,0.70
2023-01-27T13:52:52.143Z,0.70
2023-01-27T13:55:27.782Z,0.70
2023-01-27T13:58:06.205Z,0.80
2023-01-27T14:00:44.011Z,0.80
2023-01-27T14:03:37.078Z,0.80
2023-01-27T14:06:25.037Z,0.80
2023-01-27T14:09:20.349Z,0.70
2023-01-27T14:11:56.949Z,0.70
2023-01-27T14:14:56.077Z,0.70
2023-01-27T14:17:35.318Z,0.70
2023-01-27T14:20:43.082Z,0.70
2023-01-27T14:23:25.375Z,0.70
2023-01-27T14:26:03.500Z,0.70
2023-01-27T14:28:43.146Z,0.60
2023-01-27T14:31:21.069Z,0.70
2023-01-27T14:34:02.102Z,0.70
2023-01-27T14:36:41.371Z,0.70
2023-01-27T14:39:21.046Z,0.60
2023-01-27T14:41:55.051Z,0.60
2023-01-27T14:44:43.405Z,0.60
2023-01-27T14:47:19.995Z,0.60
2023-01-27T14:50:03.507Z,0.50
2023-01-27T14:52:44.358Z,0.50
2023-01-27T14:55:32.725Z,0.50
2023-01-27T14:58:24.716Z,0.50
2023-01-27T15:01:01.758Z,0.50
2023-01-27T15:04:11.811Z,0.50
2023-01-27T15:06:48.544Z,0.50
2023-01-27T15:09:42.123Z,0.50
2023-01-27T15:12:29.838Z,0.50
2023-01-27T15:15:37.916Z,0.50
2023-01-27T15:18:22.685Z,0.50
2023-01-27T15:21:11.776Z,0.50
2023-01-27T15:24:11.574Z,0.50
2023-01-27T15:26:41.845Z,0.60
2023-01-27T15:29:14.416Z,0.60
2023-01-27T15:31:44.506Z,0.60
2023-01-27T15:34:23.023Z,0.60
2023-01-27T15:37:21.484Z,0.60
2023-01-27T15:40:07.965Z,0.60
2023-01-27T15:42:53.034Z,0.60
2023-01-27T15:45:30.459Z,0.60
2023-01-27T15:48:02.890Z,0.50
2023-01-27T15:50:34.207Z,0.50
2023-01-27T15:53:07.516Z,0.60
2023-01-27T15:55:39.678Z,0.60
2023-01-27T15:58:24.271Z,0.60
2023-01-27T16:00:55.268Z,0.60
2023-01-27T16:03:28.723Z,0.60
2023-01-27T16:06:02.182Z,0.70
2023-01-27T16:08:39.104Z,0.60
2023-01-27T16:11:25.676Z,0.60
2023-01-27T16:14:34.409Z,0.60
2023-01-27T16:17:22.603Z,0.60
2023-01-27T16:20:02.399Z,0.60
2023-01-27T16:22:34.617Z,0.70
2023-01-27T16:25:14.440Z,0.70
2023-01-27T16:27:48.358Z,0.60
2023-01-27T16:30:23.129Z,0.60
2023-01-27T16:33:04.472Z,0.60
2023-01-27T16:35:35.858Z,0.60
2023-01-27T16:38:08.271Z,0.60
2023-01-27T16:40:39.582Z,0.70
2023-01-27T16:43:16.475Z,0.70
2023-01-27T16:45:49.253Z,0.60
2023-01-27T16:48:28.021Z,0.60
2023-01-27T16:51:07.215Z,0.70
2023-01-27T16:53:36.271Z,0.70
2023-01-27T16:56:06.429Z,0.70
2023-01-27T16:58:46.216Z,0.70
2023-01-27T17:01:24.109Z,0.70
2023-01-27T17:03:56.937Z,0.70
2023-01-27T17:06:29.060Z,0.70
2023-01-27T17:08:58.043Z,0.70
2023-01-27T17:11:29.593Z,0.60
2023-01-27T17:14:00.525Z,0.60
2023-01-27T17:16:34.549Z,0.60
2023-01-27T17:19:11.883Z,0.60
2023-01-27T17:21:44.396Z,0.60
2023-01-27T17:24:17.396Z,0.60
2023-01-27T17:26:49.088Z,0.60
2023-01-27T17:29:20.842Z,0.60
2023-01-27T17:31:51.707Z,0.60
2023-01-27T17:34:22.133Z,0.60
2023-01-27T17:37:15.252Z,0.50
2023-01-27T17:39:44.520Z,0.50
2023-01-27T17:42:16.965Z,0.50
2023-01-27T17:44:46.103Z,0.50
2023-01-27T17:47:18.087Z,0.60
2023-01-27T17:49:49.249Z,0.70
2023-01-27T17:52:21.580Z,0.60
2023-01-27T17:54:51.611Z,0.60
2023-01-27T17:57:23.105Z,0.60
2023-01-27T17:59:59.241Z,0.60
2023-01-27T18:02:32.881Z,0.60
2023-01-27T18:05:05.605Z,0.70
2023-01-27T18:07:34.915Z,0.70
2023-01-27T18:10:22.994Z,0.70
2023-01-27T18:12:51.575Z,0.70
2023-01-27T18:15:42.261Z,0.80
2023-01-27T18:18:24.075Z,0.80
2023-01-27T18:21:04.748Z,0.80
2023-01-27T18:23:35.983Z,0.90
2023-01-27T18:26:07.508Z,0.90
2023-01-27T18:28:38.676Z,0.90
2023-01-27T18:31:16.146Z,0.90
2023-01-27T18:33:46.928Z,0.90
2023-01-27T18:36:25.910Z,0.90
2023-01-27T18:38:54.783Z,0.90
2023-01-27T18:41:29.263Z,0.80
2023-01-27T18:43:58.128Z,0.90
2023-01-27T18:46:27.364Z,0.90
2023-01-27T18:48:59.749Z,0.80
2023-01-27T18:51:28.422Z,0.70
2023-01-27T18:53:56.973Z,0.60
2023-01-27T18:56:25.560Z,0.60
2023-01-27T18:58:55.464Z,0.60
2023-01-27T19:01:25.387Z,0.50
2023-01-27T19:03:57.494Z,0.40
2023-01-27T19:06:27.641Z,0.40
2023-01-27T19:08:56.401Z,0.40
2023-01-27T19:11:25.028Z,0.30
2023-01-27T19:13:53.832Z,0.30
2023-01-27T19:16:22.791Z,0.20
2023-01-27T19:18:51.518Z,0.20
2023-01-27T19:21:20.133Z,0.20
2023-01-27T19:23:50.149Z,0.20
2023-01-27T19:26:20.411Z,0.20
2023-01-27T19:28:52.617Z,0.30
2023-01-27T19:31:21.791Z,0.30
2023-01-27T19:33:50.592Z,0.30
2023-01-27T19:36:22.668Z,0.30
2023-01-27T19:38:56.448Z,0.40
2023-01-27T19:41:25.095Z,0.40
2023-01-27T19:43:53.672Z,0.50
2023-01-27T19:46:23.575Z,0.50
2023-01-27T19:48:52.472Z,0.40
2023-01-27T19:51:21.261Z,0.40
2023-01-27T19:53:50.204Z,0.30
2023-01-27T19:56:21.890Z,0.30
2023-01-27T19:58:52.971Z,0.30
2023-01-27T20:01:22.281Z,0.30
2023-01-27T20:03:51.534Z,0.30
2023-01-27T20:06:22.512Z,0.30
2023-01-27T20:08:55.697Z,0.30
2023-01-27T20:11:34.453Z,0.30
2023-01-27T20:14:04.290Z,0.30
2023-01-27T20:16:34.176Z,0.20
2023-01-27T20:19:03.322Z,0.20
2023-01-27T20:21:33.338Z,0.20
2023-01-27T20:24:02.343Z,0.30
2023-01-27T20:26:32.689Z,0.30
2023-01-27T20:29:01.607Z,0.40
2023-01-27T20:31:30.335Z,0.40
2023-01-27T20:34:00.499Z,0.40
2023-01-27T20:36:29.189Z,0.40
2023-01-27T20:38:58.037Z,0.40
2023-01-27T20:41:26.720Z,0.40
2023-01-27T20:44:00.921Z,0.30
2023-01-27T20:46:30.846Z,0.30
2023-01-27T20:49:00.721Z,0.20
2023-01-27T20:51:29.518Z,0.20
2023-01-27T20:54:00.255Z,0.20
2023-01-27T20:56:29.035Z,0.10
2023-01-27T20:58:59.274Z,0.10
2023-01-27T21:01:27.981Z,0.10
2023-01-27T21:03:56.579Z,0.20
2023-01-27T21:06:25.206Z,0.20
2023-01-27T21:08:56.092Z,0.20
2023-01-27T21:11:25.412Z,0.20
2023-01-27T21:13:54.145Z,0.20
2023-01-27T21:16:24.498Z,0.20
2023-01-27T21:18:53.189Z,0.20
2023-01-27T21:21:27.440Z,0.20
2023-01-27T21:24:01.152Z,0.10
2023-01-27T21:26:30.526Z,0.00
2023-01-27T21:28:59.570Z,0.00
2023-01-27T21:31:30.528Z,-0.10
2023-01-27T21:34:01.604Z,-0.20
2023-01-27T21:36:30.578Z,-0.30
2023-01-27T21:39:01.688Z,-0.30
2023-01-27T21:41:47.889Z,-0.40
2023-01-27T21:44:36.577Z,-0.40
2023-01-27T21:47:07.680Z,-0.40
2023-01-27T21:49:59.487Z,-0.40
2023-01-27T21:52:32.771Z,-0.40
2023-01-27T21:55:01.915Z,-0.50
2023-01-27T21:57:30.913Z,-0.50
2023-01-27T21:59:59.659Z,-0.50
2023-01-27T22:02:29.898Z,-0.50
2023-01-27T22:04:58.711Z,-0.50
2023-01-27T22:07:27.689Z,-0.50
2023-01-27T22:09:57.692Z,-0.50
2023-01-27T22:12:26.376Z,-0.50
2023-01-27T22:14:54.935Z,-0.50
2023-01-27T22:17:23.559Z,-0.50
2023-01-27T22:19:53.534Z,-0.50
2023-01-27T22:22:22.131Z,-0.60
2023-01-27T22:24:50.712Z,-0.60
2023-01-27T22:27:19.397Z,-0.60
2023-01-27T22:29:48.017Z,-0.50
2023-01-27T22:32:16.764Z,-0.50
2023-01-27T22:34:47.916Z,-0.50
2023-01-27T22:37:18.039Z,-0.50
2023-01-27T22:39:46.844Z,-0.60
2023-01-27T22:42:15.426Z,-0.60
2023-01-27T22:44:44.005Z,-0.60
2023-01-27T22:47:12.734Z,-0.70
2023-01-27T22:49:41.393Z,-0.70
2023-01-27T22:52:10.009Z,-0.70
2023-01-27T22:54:40.099Z,-0.70
2023-01-27T22:57:08.737Z,-0.70
2023-01-27T22:59:37.551Z,-0.80
2023-01-27T23:02:06.276Z,-0.80
2023-01-27T23:04:34.942Z,-0.80
2023-01-27T23:07:03.491Z,-0.70
2023-01-27T23:09:33.414Z,-0.80
2023-01-27T23:12:03.439Z,-0.80
2023-01-27T23:14:32.021Z,-0.80
2023-01-27T23:17:00.623Z,-0.70
2023-01-27T23:19:29.708Z,-0.70
2023-01-27T23:21:58.356Z,-0.70
2023-01-27T23:24:27.192Z,-0.70
2023-01-27T23:26:55.933Z,-0.70
2023-01-27T23:29:28.396Z,-0.70
2023-01-27T23:31:57.973Z,-0.60
2023-01-27T23:34:26.546Z,-0.60
2023-01-27T23:36:55.161Z,-0.50
2023-01-27T23:39:23.947Z,-0.50
2023-01-27T23:41:52.607Z,-0.50
2023-01-27T23:44:21.475Z,-0.40
2023-01-27T23:46:51.463Z,-0.50
2023-01-27T23:49:21.245Z,-0.50
2023-01-27T23:51:49.869Z,-0.50
2023-01-27T23:54:18.580Z,-0.50
2023-01-27T23:56:47.242Z,-0.50
2023-01-27T23:59:16.300Z,-0.50
